sensor_id;sensor_type;location;lat;lon;timestamp;pressure;altitude;pressure_sealevel;temperature;humidity
52489;BME280;38399;52.236;104.280;2022-10-03T13:03:12;97939.63;;;3.15;50.36
52489;BME280;38399;52.236;104.280;2022-10-03T13:05:50;97951.50;;;3.12;50.01
52489;BME280;38399;52.236;104.280;2022-10-03T13:11:56;97947.84;;;3.03;49.90
52489;BME280;38399;52.236;104.280;2022-10-03T13:14:42;97934.91;;;2.99;49.35
52489;BME280;38399;52.236;104.280;2022-10-03T13:20:06;97942.00;;;2.90;49.44
52489;BME280;38399;52.236;104.280;2022-10-03T13:22:44;97939.75;;;2.85;49.67
52489;BME280;38399;52.236;104.280;2022-10-03T13:25:47;97948.13;;;2.82;49.91
52489;BME280;38399;52.236;104.280;2022-10-03T13:28:35;97932.16;;;2.80;50.05
52489;BME280;38399;52.236;104.280;2022-10-03T13:31:22;97932.16;;;2.80;49.68
52489;BME280;38399;52.236;104.280;2022-10-03T13:33:53;97921.88;;;2.76;49.87
52489;BME280;38399;52.236;104.280;2022-10-03T13:38:58;97929.94;;;2.76;50.10
52489;BME280;38399;52.236;104.280;2022-10-03T13:44:26;97924.19;;;2.71;50.48
52489;BME280;38399;52.236;104.280;2022-10-03T13:49:54;97924.19;;;2.71;50.30
52489;BME280;38399;52.236;104.280;2022-10-03T13:52:40;97931.34;;;2.70;51.26
52489;BME280;38399;52.236;104.280;2022-10-03T14:00:20;97920.53;;;2.62;51.10
52489;BME280;38399;52.236;104.280;2022-10-03T14:09:18;97920.59;;;2.52;52.07
52489;BME280;38399;52.236;104.280;2022-10-03T14:12:57;97909.47;;;2.47;51.92
52489;BME280;38399;52.236;104.280;2022-10-03T14:17:55;97914.75;;;2.29;51.67
52489;BME280;38399;52.236;104.280;2022-10-03T14:20:28;97903.34;;;2.17;52.46
52489;BME280;38399;52.236;104.280;2022-10-03T14:23:30;97902.69;;;2.15;52.94
52489;BME280;38399;52.236;104.280;2022-10-03T14:26:12;97908.59;;;2.09;53.15
52489;BME280;38399;52.236;104.280;2022-10-03T14:35:12;97909.59;;;1.98;54.26
52489;BME280;38399;52.236;104.280;2022-10-03T14:38:03;97900.16;;;1.94;54.50
52489;BME280;38399;52.236;104.280;2022-10-03T14:40:40;97900.47;;;1.91;53.56
52489;BME280;38399;52.236;104.280;2022-10-03T14:43:45;97909.47;;;1.90;54.83
52489;BME280;38399;52.236;104.280;2022-10-03T14:46:18;97909.47;;;1.90;54.09
52489;BME280;38399;52.236;104.280;2022-10-03T14:48:49;97904.41;;;1.86;54.28
52489;BME280;38399;52.236;104.280;2022-10-03T14:51:39;97909.91;;;1.85;54.43
52489;BME280;38399;52.236;104.280;2022-10-03T14:54:22;97918.75;;;1.85;55.62
52489;BME280;38399;52.236;104.280;2022-10-03T14:56:50;97910.03;;;1.83;54.62
52489;BME280;38399;52.236;104.280;2022-10-03T14:59:21;97918.91;;;1.84;55.22
52489;BME280;38399;52.236;104.280;2022-10-03T15:01:55;97910.34;;;1.80;55.40
52489;BME280;38399;52.236;104.280;2022-10-03T15:04:42;97915.25;;;1.75;55.97
52489;BME280;38399;52.236;104.280;2022-10-03T15:07:11;97914.69;;;1.71;55.49
52489;BME280;38399;52.236;104.280;2022-10-03T15:15:07;97909.47;;;1.60;56.52
52489;BME280;38399;52.236;104.280;2022-10-03T15:17:44;97908.78;;;1.58;56.44
52489;BME280;38399;52.236;104.280;2022-10-03T15:20:11;97907.38;;;1.54;55.67
52489;BME280;38399;52.236;104.280;2022-10-03T15:22:39;97905.97;;;1.50;55.94
52489;BME280;38399;52.236;104.280;2022-10-03T15:25:20;97900.91;;;1.47;57.11
52489;BME280;38399;52.236;104.280;2022-10-03T15:27:52;97911.72;;;1.45;56.44
52489;BME280;38399;52.236;104.280;2022-10-03T15:32:47;97903.00;;;1.43;56.64
52489;BME280;38399;52.236;104.280;2022-10-03T15:35:26;97905.81;;;1.42;57.61
52489;BME280;38399;52.236;104.280;2022-10-03T15:37:59;97910.59;;;1.38;56.98
52489;BME280;38399;52.236;104.280;2022-10-03T15:43:51;97905.22;;;1.28;57.77
52489;BME280;38399;52.236;104.280;2022-10-03T15:45:55;97900.19;;;1.25;57.45
52489;BME280;38399;52.236;104.280;2022-10-03T15:48:22;97906.66;;;1.22;57.03
52489;BME280;38399;52.236;104.280;2022-10-03T15:50:52;97897.94;;;1.20;57.55
52489;BME280;38399;52.236;104.280;2022-10-03T15:53:24;97900.59;;;1.20;57.79
52489;BME280;38399;52.236;104.280;2022-10-03T15:58:32;97899.63;;;1.21;57.70
52489;BME280;38399;52.236;104.280;2022-10-03T16:03:33;97901.31;;;1.22;58.08
52489;BME280;38399;52.236;104.280;2022-10-03T16:09:14;97889.22;;;1.18;59.15
52489;BME280;38399;52.236;104.280;2022-10-03T16:14:53;97886.53;;;1.18;59.61
52489;BME280;38399;52.236;104.280;2022-10-03T16:19:52;97889.78;;;1.12;58.97
52489;BME280;38399;52.236;104.280;2022-10-03T16:22:35;97879.19;;;1.11;59.76
52489;BME280;38399;52.236;104.280;2022-10-03T16:25:08;97883.84;;;1.08;58.76
52489;BME280;38399;52.236;104.280;2022-10-03T16:27:39;97875.13;;;1.06;59.19
52489;BME280;38399;52.236;104.280;2022-10-03T16:35:44;97877.81;;;1.06;60.57
52489;BME280;38399;52.236;104.280;2022-10-03T16:41:12;97869.22;;;1.03;60.47
52489;BME280;38399;52.236;104.280;2022-10-03T16:43:56;97870.31;;;1.00;60.39
52489;BME280;38399;52.236;104.280;2022-10-03T16:46:26;97861.75;;;0.97;59.81
52489;BME280;38399;52.236;104.280;2022-10-03T16:48:56;97865.41;;;0.96;60.15
52489;BME280;38399;52.236;104.280;2022-10-03T16:51:45;97864.69;;;0.93;60.15
52489;BME280;38399;52.236;104.280;2022-10-03T16:54:13;97862.44;;;0.89;60.23
52489;BME280;38399;52.236;104.280;2022-10-03T16:56:47;97854.00;;;0.84;60.51
52489;BME280;38399;52.236;104.280;2022-10-03T16:59:19;97855.53;;;0.76;60.56
52489;BME280;38399;52.236;104.280;2022-10-03T17:04:28;97851.28;;;0.74;61.28
52489;BME280;38399;52.236;104.280;2022-10-03T17:07:00;97850.31;;;0.75;60.78
52489;BME280;38399;52.236;104.280;2022-10-03T17:09:48;97843.28;;;0.74;61.35
52489;BME280;38399;52.236;104.280;2022-10-03T17:14:52;97848.19;;;0.69;61.10
52489;BME280;38399;52.236;104.280;2022-10-03T17:26:04;97848.63;;;0.64;61.58
52489;BME280;38399;52.236;104.280;2022-10-03T17:28:53;97846.22;;;0.61;61.62
52489;BME280;38399;52.236;104.280;2022-10-03T17:31:47;97842.00;;;0.58;62.02
52489;BME280;38399;52.236;104.280;2022-10-03T17:34:22;97838.03;;;0.53;61.31
52489;BME280;38399;52.236;104.280;2022-10-03T17:39:55;97838.44;;;0.38;62.20
52489;BME280;38399;52.236;104.280;2022-10-03T17:42:47;97830.69;;;0.35;62.39
52489;BME280;38399;52.236;104.280;2022-10-03T17:53:49;97842.50;;;0.11;62.19
52489;BME280;38399;52.236;104.280;2022-10-03T17:56:19;97836.34;;;0.11;62.51
52489;BME280;38399;52.236;104.280;2022-10-03T17:58:53;97840.81;;;0.10;62.91
52489;BME280;38399;52.236;104.280;2022-10-03T18:01:30;97850.41;;;0.13;62.79
52489;BME280;38399;52.236;104.280;2022-10-03T18:04:04;97831.84;;;0.11;62.98
52489;BME280;38399;52.236;104.280;2022-10-03T18:06:41;97839.84;;;0.11;63.29
52489;BME280;38399;52.236;104.280;2022-10-03T18:09:28;97842.66;;;0.10;63.32
52489;BME280;38399;52.236;104.280;2022-10-03T18:12:04;97837.47;;;0.08;62.96
52489;BME280;38399;52.236;104.280;2022-10-03T18:20:30;97836.03;;;0.04;62.39
52489;BME280;38399;52.236;104.280;2022-10-03T18:23:04;97834.47;;;0.02;63.04
52489;BME280;38399;52.236;104.280;2022-10-03T18:26:10;97837.28;;;0.00;63.50
52489;BME280;38399;52.236;104.280;2022-10-03T18:28:43;97836.69;;;-0.04;63.17
52489;BME280;38399;52.236;104.280;2022-10-03T18:31:17;97831.63;;;-0.07;63.16
52489;BME280;38399;52.236;104.280;2022-10-03T18:36:45;97838.59;;;-0.16;62.74
52489;BME280;38399;52.236;104.280;2022-10-03T18:39:30;97833.66;;;-0.20;63.34
52489;BME280;38399;52.236;104.280;2022-10-03T18:42:00;97832.34;;;-0.26;63.09
52489;BME280;38399;52.236;104.280;2022-10-03T18:44:29;97829.94;;;-0.29;63.06
52489;BME280;38399;52.236;104.280;2022-10-03T18:47:18;97833.63;;;-0.30;63.41
52489;BME280;38399;52.236;104.280;2022-10-03T18:52:49;97831.34;;;-0.35;63.75
52489;BME280;38399;52.236;104.280;2022-10-03T18:55:30;97826.97;;;-0.36;64.22
52489;BME280;38399;52.236;104.280;2022-10-03T18:58:43;97831.78;;;-0.29;63.30
52489;BME280;38399;52.236;104.280;2022-10-03T19:01:03;97830.81;;;-0.28;63.45
52489;BME280;38399;52.236;104.280;2022-10-03T19:03:57;97824.34;;;-0.26;63.85
52489;BME280;38399;52.236;104.280;2022-10-03T19:06:28;97839.53;;;-0.26;63.12
52489;BME280;38399;52.236;104.280;2022-10-03T19:09:02;97839.53;;;-0.26;63.31
52489;BME280;38399;52.236;104.280;2022-10-03T19:11:40;97832.50;;;-0.27;63.66
52489;BME280;38399;52.236;104.280;2022-10-03T19:14:12;97834.31;;;-0.28;63.25
52489;BME280;38399;52.236;104.280;2022-10-03T19:17:13;97834.31;;;-0.28;64.08
52489;BME280;38399;52.236;104.280;2022-10-03T19:22:27;97832.03;;;-0.33;63.72
52489;BME280;38399;52.236;104.280;2022-10-03T19:24:57;97830.09;;;-0.30;63.46
52489;BME280;38399;52.236;104.280;2022-10-03T19:27:50;97832.59;;;-0.29;63.45
52489;BME280;38399;52.236;104.280;2022-10-03T19:30:21;97825.63;;;-0.30;63.60
52489;BME280;38399;52.236;104.280;2022-10-03T19:33:02;97818.44;;;-0.29;63.57
52489;BME280;38399;52.236;104.280;2022-10-03T19:35:31;97820.41;;;-0.32;63.44
52489;BME280;38399;52.236;104.280;2022-10-03T19:38:23;97820.16;;;-0.28;63.44
52489;BME280;38399;52.236;104.280;2022-10-03T19:43:44;97826.59;;;-0.31;63.77
52489;BME280;38399;52.236;104.280;2022-10-03T19:51:22;97812.75;;;-0.46;63.22
52489;BME280;38399;52.236;104.280;2022-10-03T19:53:49;97816.25;;;-0.45;63.41
52489;BME280;38399;52.236;104.280;2022-10-03T19:56:19;97816.50;;;-0.49;63.35
52489;BME280;38399;52.236;104.280;2022-10-03T19:58:56;97809.38;;;-0.48;63.25
52489;BME280;38399;52.236;104.280;2022-10-03T20:01:23;97809.22;;;-0.47;63.29
52489;BME280;38399;52.236;104.280;2022-10-03T20:04:09;97816.38;;;-0.47;63.08
52489;BME280;38399;52.236;104.280;2022-10-03T20:06:39;97814.56;;;-0.47;63.55
52489;BME280;38399;52.236;104.280;2022-10-03T20:09:23;97802.91;;;-0.45;63.50
52489;BME280;38399;52.236;104.280;2022-10-03T20:12:07;97798.13;;;-0.52;63.24
52489;BME280;38399;52.236;104.280;2022-10-03T20:14:36;97802.59;;;-0.52;63.14
52489;BME280;38399;52.236;104.280;2022-10-03T20:17:19;97801.19;;;-0.56;63.96
52489;BME280;38399;52.236;104.280;2022-10-03T20:19:50;97803.56;;;-0.53;63.32
52489;BME280;38399;52.236;104.280;2022-10-03T20:22:26;97810.72;;;-0.54;63.67
52489;BME280;38399;52.236;104.280;2022-10-03T20:24:53;97804.44;;;-0.53;63.65
52489;BME280;38399;52.236;104.280;2022-10-03T20:27:36;97805.41;;;-0.54;64.32
52489;BME280;38399;52.236;104.280;2022-10-03T20:32:55;97803.69;;;-0.55;63.68
52489;BME280;38399;52.236;104.280;2022-10-03T20:35:26;97802.00;;;-0.56;63.71
52489;BME280;38399;52.236;104.280;2022-10-03T20:38:07;97795.00;;;-0.57;63.32
52489;BME280;38399;52.236;104.280;2022-10-03T20:41:06;97799.50;;;-0.57;63.68
52489;BME280;38399;52.236;104.280;2022-10-03T20:54:21;97789.41;;;-0.54;63.61
52489;BME280;38399;52.236;104.280;2022-10-03T20:56:58;97801.75;;;-0.53;63.39
52489;BME280;38399;52.236;104.280;2022-10-03T21:02:23;97793.50;;;-0.50;64.33
52489;BME280;38399;52.236;104.280;2022-10-03T21:05:00;97800.25;;;-0.45;63.83
52489;BME280;38399;52.236;104.280;2022-10-03T21:12:49;97797.34;;;-0.42;63.14
52489;BME280;38399;52.236;104.280;2022-10-03T21:17:46;97794.69;;;-0.42;63.39
52489;BME280;38399;52.236;104.280;2022-10-03T21:20:18;97787.91;;;-0.47;63.21
52489;BME280;38399;52.236;104.280;2022-10-03T21:22:53;97794.78;;;-0.44;63.22
52489;BME280;38399;52.236;104.280;2022-10-03T21:25:30;97803.16;;;-0.49;63.19
52489;BME280;38399;52.236;104.280;2022-10-03T21:28:01;97797.00;;;-0.49;63.26
52489;BME280;38399;52.236;104.280;2022-10-03T21:33:19;97804.88;;;-0.48;63.18
52489;BME280;38399;52.236;104.280;2022-10-03T21:35:52;97803.31;;;-0.50;62.70
52489;BME280;38399;52.236;104.280;2022-10-03T21:38:31;97802.59;;;-0.52;63.05
52489;BME280;38399;52.236;104.280;2022-10-03T21:41:06;97800.06;;;-0.54;62.70
52489;BME280;38399;52.236;104.280;2022-10-03T21:44:04;97794.59;;;-0.52;62.85
52489;BME280;38399;52.236;104.280;2022-10-03T21:46:58;97796.44;;;-0.53;62.63
52489;BME280;38399;52.236;104.280;2022-10-03T21:49:43;97807.63;;;-0.59;63.02
52489;BME280;38399;52.236;104.280;2022-10-03T21:57:33;97809.75;;;-0.53;63.50
52489;BME280;38399;52.236;104.280;2022-10-03T22:00:51;97808.97;;;-0.43;63.59
52489;BME280;38399;52.236;104.280;2022-10-03T22:03:24;97804.22;;;-0.40;63.23
52489;BME280;38399;52.236;104.280;2022-10-03T22:06:07;97807.34;;;-0.35;63.31
52489;BME280;38399;52.236;104.280;2022-10-03T22:08:42;97801.88;;;-0.33;62.80
52489;BME280;38399;52.236;104.280;2022-10-03T22:11:23;97799.06;;;-0.32;62.56
52489;BME280;38399;52.236;104.280;2022-10-03T22:17:18;97797.53;;;-0.34;63.15
52489;BME280;38399;52.236;104.280;2022-10-03T22:23:07;97808.91;;;-0.32;63.30
52489;BME280;38399;52.236;104.280;2022-10-03T22:28:37;97807.06;;;-0.32;62.80
52489;BME280;38399;52.236;104.280;2022-10-03T22:36:55;97791.22;;;-0.33;62.10
52489;BME280;38399;52.236;104.280;2022-10-03T22:39:24;97799.03;;;-0.41;62.82
52489;BME280;38399;52.236;104.280;2022-10-03T22:41:55;97795.78;;;-0.45;63.02
52489;BME280;38399;52.236;104.280;2022-10-03T22:44:25;97799.81;;;-0.51;63.02
52489;BME280;38399;52.236;104.280;2022-10-03T22:46:57;97804.69;;;-0.56;63.26
52489;BME280;38399;52.236;104.280;2022-10-03T22:51:55;97808.44;;;-0.58;63.54
52489;BME280;38399;52.236;104.280;2022-10-03T22:54:32;97802.28;;;-0.59;63.53
52489;BME280;38399;52.236;104.280;2022-10-03T22:57:13;97807.97;;;-0.64;63.48
52489;BME280;38399;52.236;104.280;2022-10-03T23:05:23;97813.84;;;-0.70;63.77
52489;BME280;38399;52.236;104.280;2022-10-03T23:13:05;97816.88;;;-0.74;63.72
52489;BME280;38399;52.236;104.280;2022-10-03T23:15:37;97818.81;;;-0.76;63.95
52489;BME280;38399;52.236;104.280;2022-10-03T23:21:23;97818.56;;;-0.73;63.63
52489;BME280;38399;52.236;104.280;2022-10-03T23:26:38;97828.84;;;-0.69;63.55
52489;BME280;38399;52.236;104.280;2022-10-03T23:29:18;97828.72;;;-0.67;63.80
52489;BME280;38399;52.236;104.280;2022-10-03T23:31:54;97825.81;;;-0.64;64.08
52489;BME280;38399;52.236;104.280;2022-10-03T23:42:17;97832.38;;;-0.47;64.11
52489;BME280;38399;52.236;104.280;2022-10-03T23:44:48;97827.03;;;-0.47;63.33
52489;BME280;38399;52.236;104.280;2022-10-03T23:48:10;97835.63;;;-0.43;63.48
52489;BME280;38399;52.236;104.280;2022-10-03T23:50:23;97832.22;;;-0.45;63.72
52489;BME280;38399;52.236;104.280;2022-10-03T23:52:55;97831.50;;;-0.48;63.42
52489;BME280;38399;52.236;104.280;2022-10-03T23:55:24;97833.22;;;-0.47;63.18
52489;BME280;38399;52.236;104.280;2022-10-03T23:57:52;97833.78;;;-0.43;63.48
